Garden City, GA (31418)

10:24 PM EST on February 12, 2016 (GMT -0500)
Sangrena-Pooler | | Change Station
CLOSE
Current Station
Personal Weather Station
Location: Pooler, GA
Elevation: 26 ft
Nearby Weather Stations
Active Advisory: Flood Warning Active Notice: Public Information Statement

Elev 26 ft 32.13 °N, 81.27 °W | Updated 14 seconds ago

Clear
Clear
53.6 °F
Feels Like 53.6 °F
N
1.8
Wind Variable Wind from NNW
Gusts 2.5 mph

Today
High -- | Low -- °F
--% Chance of Precip.
Yesterday
High -- | Low -- °F
Precip. -- in
Pressure 30.06 in
Visibility 10.0 miles
Clouds Clear
Dew Point 49 °F
Humidity 85%
Rainfall 0.00 in
Snow Depth Not available.
7:10 AM 6:08 PM
Waxing Crescent, 26% visible
METAR KSAV 130253Z 25007KT 10SM CLR 12/08 A3006 RMK AO2 SLP178 T01220083 53006 $
Pressure 30.06 in
Visibility 10.0 miles
Clouds Clear
Dew Point 49 °F
Humidity 85%
Rainfall 0.00 in
Snow Depth Not available.
7:10 AM 6:08 PM
Waxing Crescent, 26% visible
METAR KSAV 130253Z 25007KT 10SM CLR 12/08 A3006 RMK AO2 SLP178 T01220083 53006 $

10-Day Weather Forecast

Almanac

Astronomy

Feb. 12, 2016 Rise Set
Actual Time
Civil Twilight
Nautical Twilight
Astronomical Twilight
Moon
Length of Visible Light
Length of Day
Tomorrow will be .
, % of the Moon is Illuminated

Today's Extremes

State Highs State Lows

Community

WunderPhotos

Upload Photos

1,892,491 photos uploaded!

WunderBlog® & News

Nearby

Air Quality

  Air Quality AQ Index Pollutant
Not available.

Snow Depth

Station Depth Elevation

Earthquake Activity

City Distance Mag. Time & Date
Minimum magnitude displayed is 2.5.

Coastal Water Temperatures

Place Temperature

Stations

Nearby Weather Stations

Station Location Temp. Windchill Dew Point Humidity Wind Precip. Elev Updated Type
                   

Watches & Warnings

Flood Warning
Issued: 8:01 PM EST Feb. 12, 2016 – National Weather Service

The Flood Warning continues for
the Ogeechee river near Eden.
* At 7 PM Friday the stage was 12.7 feet.
* Flood stage is 11.0 feet.
* Minor flooding is occurring.
* Forecast, the river will continue to fall.
* At 12.0 feet, water encroaches on some homes along dashers Landing
Road and Yarbrough Landing Road. Davis Landing Road also becomes
impassable.


Lat... Lon 3246 8160 3252 8152 3227 8140 3208 8133
          3206 8143 3223 8150